Terminal Aerodrome Forecast
Issued by NWS Cleveland, OH

Home | Current Version | Previous Version | Graphics & Text | Print | Product List | Glossary On
Versions: 1 2 3 4 5 6 7 8 9 10 11 12 13 14 15 16 17 18
990
FTUS41 KCLE 031731
TAFYNG
TAF
KYNG 031731Z 0318/0418 25008KT P6SM OVC020
      TEMPO 0319/0322 OVC019
     FM040800 VRB03KT P6SM SCT030 BKN250=

USA.gov is the U.S. government's official web portal to all federal, state and local government web resources and services.